sensor_id;sensor_type;location;lat;lon;timestamp;pressure;altitude;pressure_sealevel;temperature;humidity
11347;BME280;5728;42.722;23.258;2024-03-23T00:55:12;94814.97;;;5.55;71.67
11347;BME280;5728;42.722;23.258;2024-03-23T00:57:43;94827.03;;;5.65;70.88
11347;BME280;5728;42.722;23.258;2024-03-23T01:00:12;94827.81;;;5.54;71.85
11347;BME280;5728;42.722;23.258;2024-03-23T01:02:39;94816.69;;;5.53;71.45
11347;BME280;5728;42.722;23.258;2024-03-23T01:05:07;94846.50;;;5.18;72.19
11347;BME280;5728;42.722;23.258;2024-03-23T01:07:33;94797.63;;;5.12;73.08
11347;BME280;5728;42.722;23.258;2024-03-23T01:10:00;94806.94;;;4.96;73.54
11347;BME280;5728;42.722;23.258;2024-03-23T01:12:28;94817.34;;;5.14;73.29
11347;BME280;5728;42.722;23.258;2024-03-23T01:14:55;94807.03;;;5.11;72.45
11347;BME280;5728;42.722;23.258;2024-03-23T01:17:21;94807.94;;;5.18;72.36
11347;BME280;5728;42.722;23.258;2024-03-23T01:19:48;94813.09;;;5.18;72.26
11347;BME280;5728;42.722;23.258;2024-03-23T01:22:14;94814.84;;;5.28;72.33
11347;BME280;5728;42.722;23.258;2024-03-23T01:24:41;94813.09;;;5.18;72.45
11347;BME280;5728;42.722;23.258;2024-03-23T01:27:06;94818.38;;;5.48;71.17
11347;BME280;5728;42.722;23.258;2024-03-23T01:29:36;94821.66;;;5.20;71.59
11347;BME280;5728;42.722;23.258;2024-03-23T01:32:03;94813.06;;;5.16;72.52
11347;BME280;5728;42.722;23.258;2024-03-23T01:34:30;94813.00;;;5.03;72.99
11347;BME280;5728;42.722;23.258;2024-03-23T01:36:55;94806.22;;;5.17;72.34
11347;BME280;5728;42.722;23.258;2024-03-23T01:39:22;94814.78;;;5.18;72.48
11347;BME280;5728;42.722;23.258;2024-03-23T01:41:48;94808.75;;;5.08;72.37
11347;BME280;5728;42.722;23.258;2024-03-23T01:44:15;94812.22;;;5.19;72.21
11347;BME280;5728;42.722;23.258;2024-03-23T01:46:43;94808.75;;;5.14;73.03
11347;BME280;5728;42.722;23.258;2024-03-23T01:49:11;94806.13;;;5.02;72.31
11347;BME280;5728;42.722;23.258;2024-03-23T01:51:38;94811.16;;;4.84;73.50
11347;BME280;5728;42.722;23.258;2024-03-23T01:54:06;94798.44;;;5.00;72.96
11347;BME280;5728;42.722;23.258;2024-03-23T01:56:33;94807.00;;;5.02;73.20
11347;BME280;5728;42.722;23.258;2024-03-23T01:59:01;94806.09;;;4.97;73.27
11347;BME280;5728;42.722;23.258;2024-03-23T02:01:27;94816.44;;;5.05;72.12
11347;BME280;5728;42.722;23.258;2024-03-23T02:03:56;94796.63;;;4.89;72.53
11347;BME280;5728;42.722;23.258;2024-03-23T02:06:22;94806.78;;;4.72;74.23
11347;BME280;5728;42.722;23.258;2024-03-23T02:08:49;94799.06;;;4.68;74.96
11347;BME280;5728;42.722;23.258;2024-03-23T02:11:15;94816.91;;;4.54;74.98
11347;BME280;5728;42.722;23.258;2024-03-23T02:13:42;94814.41;;;4.62;74.90
11347;BME280;5728;42.722;23.258;2024-03-23T02:16:08;94815.38;;;4.73;74.69
11347;BME280;5728;42.722;23.258;2024-03-23T02:18:36;94812.88;;;4.85;76.93
11347;BME280;5728;42.722;23.258;2024-03-23T02:21:04;94812.72;;;4.61;76.30
11347;BME280;5728;42.722;23.258;2024-03-23T02:23:32;94809.41;;;4.81;74.84
11347;BME280;5728;42.722;23.258;2024-03-23T02:25:58;94813.72;;;4.81;74.18
11347;BME280;5728;42.722;23.258;2024-03-23T02:28:25;94816.28;;;4.84;74.95
11347;BME280;5728;42.722;23.258;2024-03-23T02:30:51;94820.34;;;4.55;76.53
11347;BME280;5728;42.722;23.258;2024-03-23T02:33:18;94816.47;;;4.06;78.47
11347;BME280;5728;42.722;23.258;2024-03-23T02:35:45;94805.16;;;3.84;77.47
11347;BME280;5728;42.722;23.258;2024-03-23T02:38:12;94818.94;;;3.92;79.79
11347;BME280;5728;42.722;23.258;2024-03-23T02:40:39;94822.66;;;3.46;78.95
11347;BME280;5728;42.722;23.258;2024-03-23T02:43:06;94810.44;;;3.24;81.10
11347;BME280;5728;42.722;23.258;2024-03-23T02:45:32;94817.81;;;3.01;82.59
11347;BME280;5728;42.722;23.258;2024-03-23T02:47:59;94846.41;;;2.72;83.74
11347;BME280;5728;42.722;23.258;2024-03-23T02:50:25;94817.38;;;2.71;84.58
11347;BME280;5728;42.722;23.258;2024-03-23T02:52:52;94818.03;;;3.18;84.04
11347;BME280;5728;42.722;23.258;2024-03-23T02:55:18;94848.16;;;3.34;84.37
11347;BME280;5728;42.722;23.258;2024-03-23T02:57:46;94812.50;;;3.55;82.70
11347;BME280;5728;42.722;23.258;2024-03-23T03:00:13;94814.47;;;3.74;81.41
11347;BME280;5728;42.722;23.258;2024-03-23T03:02:40;94804.19;;;3.74;82.22
11347;BME280;5728;42.722;23.258;2024-03-23T03:05:06;94800.81;;;3.78;81.27
11347;BME280;5728;42.722;23.258;2024-03-23T03:07:34;94815.22;;;3.00;81.77
11347;BME280;5728;42.722;23.258;2024-03-23T03:10:00;94806.13;;;3.21;83.11
11347;BME280;5728;42.722;23.258;2024-03-23T03:12:27;94808.19;;;3.50;81.74
11347;BME280;5728;42.722;23.258;2024-03-23T03:14:54;94816.44;;;3.28;82.03
11347;BME280;5728;42.722;23.258;2024-03-23T03:17:21;94848.59;;;3.04;82.27
11347;BME280;5728;42.722;23.258;2024-03-23T03:19:47;94833.63;;;2.75;83.37
11347;BME280;5728;42.722;23.258;2024-03-23T03:22:14;94813.97;;;2.71;84.37
11347;BME280;5728;42.722;23.258;2024-03-23T03:24:41;94809.97;;;2.91;83.63
11347;BME280;5728;42.722;23.258;2024-03-23T03:27:07;94815.25;;;2.43;84.20
11347;BME280;5728;42.722;23.258;2024-03-23T03:29:35;94814.44;;;2.45;85.66
11347;BME280;5728;42.722;23.258;2024-03-23T03:32:03;94810.91;;;2.97;86.87
11347;BME280;5728;42.722;23.258;2024-03-23T03:34:30;94804.34;;;3.14;85.37
11347;BME280;5728;42.722;23.258;2024-03-23T03:36:56;94803.38;;;2.48;84.85
11347;BME280;5728;42.722;23.258;2024-03-23T03:39:23;94818.16;;;2.66;85.99
11347;BME280;5728;42.722;23.258;2024-03-23T03:41:49;94810.75;;;2.85;84.17
11347;BME280;5728;42.722;23.258;2024-03-23T03:44:16;94808.78;;;2.66;84.08
11347;BME280;5728;42.722;23.258;2024-03-23T03:46:42;94819.69;;;2.54;84.95
11347;BME280;5728;42.722;23.258;2024-03-23T03:49:11;94816.13;;;2.45;83.44
11347;BME280;5728;42.722;23.258;2024-03-23T03:51:37;94808.78;;;2.66;84.03
11347;BME280;5728;42.722;23.258;2024-03-23T03:54:04;94816.03;;;2.97;85.60
11347;BME280;5728;42.722;23.258;2024-03-23T03:56:30;94828.44;;;2.70;84.83
11347;BME280;5728;42.722;23.258;2024-03-23T03:58:57;94818.34;;;2.24;84.23
11347;BME280;5728;42.722;23.258;2024-03-23T04:01:23;94826.72;;;2.17;84.63
11347;BME280;5728;42.722;23.258;2024-03-23T04:03:50;94820.59;;;2.07;85.14
11347;BME280;5728;42.722;23.258;2024-03-23T04:06:20;94820.47;;;2.00;85.61
11347;BME280;5728;42.722;23.258;2024-03-23T04:08:47;94821.97;;;2.38;86.31
11347;BME280;5728;42.722;23.258;2024-03-23T04:11:13;94823.72;;;2.39;86.38
11347;BME280;5728;42.722;23.258;2024-03-23T04:13:40;94826.47;;;2.02;85.52
11347;BME280;5728;42.722;23.258;2024-03-23T04:16:07;94819.53;;;1.94;86.10
11347;BME280;5728;42.722;23.258;2024-03-23T04:18:34;94827.72;;;2.23;86.30
11347;BME280;5728;42.722;23.258;2024-03-23T04:21:00;94827.28;;;2.48;86.47
11347;BME280;5728;42.722;23.258;2024-03-23T04:23:29;94825.75;;;2.61;85.22
11347;BME280;5728;42.722;23.258;2024-03-23T04:25:55;94830.31;;;2.79;85.58
11347;BME280;5728;42.722;23.258;2024-03-23T04:28:22;94834.59;;;2.81;84.96
11347;BME280;5728;42.722;23.258;2024-03-23T04:30:48;94826.28;;;2.39;85.94
11347;BME280;5728;42.722;23.258;2024-03-23T04:33:15;94821.75;;;2.78;86.62
11347;BME280;5728;42.722;23.258;2024-03-23T04:35:41;94821.97;;;2.95;85.13
11347;BME280;5728;42.722;23.258;2024-03-23T04:38:08;94827.09;;;2.92;84.33
11347;BME280;5728;42.722;23.258;2024-03-23T04:40:36;94831.75;;;3.21;83.13
11347;BME280;5728;42.722;23.258;2024-03-23T04:43:04;94824.28;;;3.38;82.53
11347;BME280;5728;42.722;23.258;2024-03-23T04:45:31;94834.03;;;3.68;80.80
11347;BME280;5728;42.722;23.258;2024-03-23T04:47:57;94837.56;;;3.77;80.65
11347;BME280;5728;42.722;23.258;2024-03-23T04:50:24;94841.13;;;3.90;80.58
11347;BME280;5728;42.722;23.258;2024-03-23T04:52:51;94833.50;;;3.96;79.40
11347;BME280;5728;42.722;23.258;2024-03-23T04:55:17;94838.84;;;4.17;79.40
11347;BME280;5728;42.722;23.258;2024-03-23T04:57:45;94845.78;;;4.27;77.47
11347;BME280;5728;42.722;23.258;2024-03-23T05:00:12;94845.06;;;4.43;76.41
11347;BME280;5728;42.722;23.258;2024-03-23T05:02:44;94820.28;;;4.45;75.98
11347;BME280;5728;42.722;23.258;2024-03-23T05:05:10;94825.47;;;4.51;75.50
11347;BME280;5728;42.722;23.258;2024-03-23T05:07:37;94832.28;;;4.49;75.19
11347;BME280;5728;42.722;23.258;2024-03-23T05:10:04;94828.22;;;4.79;74.82
11347;BME280;5728;42.722;23.258;2024-03-23T05:12:31;94833.41;;;4.80;73.77
11347;BME280;5728;42.722;23.258;2024-03-23T05:14:58;94826.56;;;4.82;74.28
11347;BME280;5728;42.722;23.258;2024-03-23T05:17:25;94828.38;;;4.97;73.70
11347;BME280;5728;42.722;23.258;2024-03-23T05:19:51;94830.22;;;5.16;72.28
11347;BME280;5728;42.722;23.258;2024-03-23T05:22:18;94834.47;;;5.11;72.40
11347;BME280;5728;42.722;23.258;2024-03-23T05:24:45;94829.31;;;5.12;73.48
11347;BME280;5728;42.722;23.258;2024-03-23T05:27:12;94828.59;;;5.36;72.69
11347;BME280;5728;42.722;23.258;2024-03-23T05:29:38;94859.47;;;5.44;72.07
11347;BME280;5728;42.722;23.258;2024-03-23T05:32:07;94839.84;;;5.55;72.19
11347;BME280;5728;42.722;23.258;2024-03-23T05:34:33;94840.78;;;5.73;71.62
11347;BME280;5728;42.722;23.258;2024-03-23T05:37:00;94833.13;;;5.92;71.22
11347;BME280;5728;42.722;23.258;2024-03-23T05:39:25;94833.06;;;5.84;70.78
11347;BME280;5728;42.722;23.258;2024-03-23T05:41:53;94834.06;;;6.10;69.75
11347;BME280;5728;42.722;23.258;2024-03-23T05:44:18;94830.59;;;6.07;70.01
11347;BME280;5728;42.722;23.258;2024-03-23T05:46:45;94835.81;;;6.32;68.28
11347;BME280;5728;42.722;23.258;2024-03-23T05:49:15;94822.13;;;6.44;68.90
11347;BME280;5728;42.722;23.258;2024-03-23T05:51:42;94837.59;;;6.59;67.43
11347;BME280;5728;42.722;23.258;2024-03-23T05:54:08;94837.56;;;6.50;68.10
11347;BME280;5728;42.722;23.258;2024-03-23T05:56:35;94833.25;;;6.55;69.18
11347;BME280;5728;42.722;23.258;2024-03-23T05:59:01;94835.84;;;6.82;67.53
11347;BME280;5728;42.722;23.258;2024-03-23T06:01:29;94835.84;;;6.81;67.38
11347;BME280;5728;42.722;23.258;2024-03-23T06:03:58;94835.84;;;7.03;67.24
11347;BME280;5728;42.722;23.258;2024-03-23T06:06:28;94829.81;;;7.07;65.84
11347;BME280;5728;42.722;23.258;2024-03-23T06:08:55;94831.50;;;7.30;65.62
11347;BME280;5728;42.722;23.258;2024-03-23T06:11:22;94828.78;;;7.83;63.87
11347;BME280;5728;42.722;23.258;2024-03-23T06:13:48;94825.47;;;7.40;65.13
11347;BME280;5728;42.722;23.258;2024-03-23T06:16:16;94824.44;;;7.86;63.06
11347;BME280;5728;42.722;23.258;2024-03-23T06:18:41;94821.09;;;7.58;64.03
11347;BME280;5728;42.722;23.258;2024-03-23T06:21:13;94816.63;;;8.03;63.51
11347;BME280;5728;42.722;23.258;2024-03-23T06:23:41;94824.25;;;8.25;61.82
11347;BME280;5728;42.722;23.258;2024-03-23T06:26:08;94824.19;;;8.36;61.41
11347;BME280;5728;42.722;23.258;2024-03-23T06:28:35;94814.69;;;8.46;61.12
11347;BME280;5728;42.722;23.258;2024-03-23T06:31:03;94820.63;;;8.57;59.80
11347;BME280;5728;42.722;23.258;2024-03-23T06:33:29;94831.75;;;8.66;60.58
11347;BME280;5728;42.722;23.258;2024-03-23T06:35:56;94818.63;;;8.89;60.13
11347;BME280;5728;42.722;23.258;2024-03-23T06:38:23;94821.22;;;8.89;58.21
11347;BME280;5728;42.722;23.258;2024-03-23T06:40:51;94827.59;;;9.46;58.57
11347;BME280;5728;42.722;23.258;2024-03-23T06:43:18;94818.22;;;9.34;57.75
11347;BME280;5728;42.722;23.258;2024-03-23T06:45:52;94827.09;;;9.11;59.48
11347;BME280;5728;42.722;23.258;2024-03-23T06:48:18;94808.00;;;9.24;59.24
11347;BME280;5728;42.722;23.258;2024-03-23T06:50:45;94816.66;;;9.21;59.63
11347;BME280;5728;42.722;23.258;2024-03-23T06:53:12;94822.88;;;9.84;58.78
11347;BME280;5728;42.722;23.258;2024-03-23T06:55:39;94862.00;;;10.33;57.73
11347;BME280;5728;42.722;23.258;2024-03-23T06:58:07;94822.66;;;10.63;54.54
11347;BME280;5728;42.722;23.258;2024-03-23T07:00:35;94821.66;;;10.73;54.44
11347;BME280;5728;42.722;23.258;2024-03-23T07:03:01;94820.13;;;9.14;59.38
11347;BME280;5728;42.722;23.258;2024-03-23T07:05:29;94823.28;;;10.21;55.62
11347;BME280;5728;42.722;23.258;2024-03-23T07:07:55;94812.44;;;10.54;53.70
11347;BME280;5728;42.722;23.258;2024-03-23T07:10:22;94813.81;;;9.42;58.29
11347;BME280;5728;42.722;23.258;2024-03-23T07:12:48;94808.94;;;9.94;56.40
11347;BME280;5728;42.722;23.258;2024-03-23T07:15:17;94804.72;;;10.51;56.55
11347;BME280;5728;42.722;23.258;2024-03-23T07:17:46;94802.03;;;10.56;55.17
11347;BME280;5728;42.722;23.258;2024-03-23T07:20:15;94828.25;;;10.94;54.92
11347;BME280;5728;42.722;23.258;2024-03-23T07:22:41;94798.03;;;10.92;55.02
11347;BME280;5728;42.722;23.258;2024-03-23T07:25:08;94789.75;;;10.68;54.01
11347;BME280;5728;42.722;23.258;2024-03-23T07:27:53;94797.38;;;11.28;52.36
11347;BME280;5728;42.722;23.258;2024-03-23T07:30:21;94788.75;;;10.77;52.63
11347;BME280;5728;42.722;23.258;2024-03-23T07:32:47;94796.53;;;10.17;54.53
11347;BME280;5728;42.722;23.258;2024-03-23T07:35:14;94814.41;;;10.94;56.13
11347;BME280;5728;42.722;23.258;2024-03-23T07:37:41;94794.22;;;11.12;54.56
11347;BME280;5728;42.722;23.258;2024-03-23T07:40:09;94789.22;;;11.93;52.53
11347;BME280;5728;42.722;23.258;2024-03-23T07:42:35;94788.84;;;12.11;51.65
11347;BME280;5728;42.722;23.258;2024-03-23T07:45:02;94799.81;;;12.64;50.81
11347;BME280;5728;42.722;23.258;2024-03-23T07:47:30;94779.75;;;12.69;48.75
11347;BME280;5728;42.722;23.258;2024-03-23T07:49:57;94773.78;;;12.65;50.10
11347;BME280;5728;42.722;23.258;2024-03-23T07:52:23;94788.31;;;11.97;50.02
11347;BME280;5728;42.722;23.258;2024-03-23T07:54:50;94775.72;;;12.57;50.10
11347;BME280;5728;42.722;23.258;2024-03-23T07:57:16;94774.50;;;12.34;48.95
11347;BME280;5728;42.722;23.258;2024-03-23T07:59:44;94774.66;;;12.28;50.17
11347;BME280;5728;42.722;23.258;2024-03-23T08:02:10;94771.81;;;12.75;49.19
11347;BME280;5728;42.722;23.258;2024-03-23T08:04:39;94764.53;;;12.89;47.97
11347;BME280;5728;42.722;23.258;2024-03-23T08:07:06;94774.75;;;12.97;47.95
11347;BME280;5728;42.722;23.258;2024-03-23T08:09:32;94771.38;;;12.93;47.68
11347;BME280;5728;42.722;23.258;2024-03-23T08:11:59;94782.53;;;13.33;47.10
11347;BME280;5728;42.722;23.258;2024-03-23T08:14:25;94764.25;;;13.67;50.26
11347;BME280;5728;42.722;23.258;2024-03-23T08:16:54;94784.88;;;13.75;50.53
11347;BME280;5728;42.722;23.258;2024-03-23T08:19:20;94757.94;;;12.76;47.96
11347;BME280;5728;42.722;23.258;2024-03-23T08:21:49;94750.50;;;13.30;50.39
11347;BME280;5728;42.722;23.258;2024-03-23T08:24:17;94774.53;;;13.73;46.20
11347;BME280;5728;42.722;23.258;2024-03-23T08:26:45;94753.28;;;14.73;48.40
11347;BME280;5728;42.722;23.258;2024-03-23T08:29:11;94760.03;;;14.23;45.25
11347;BME280;5728;42.722;23.258;2024-03-23T08:31:38;94754.34;;;13.80;46.42
11347;BME280;5728;42.722;23.258;2024-03-23T08:34:04;94757.09;;;13.09;47.82
11347;BME280;5728;42.722;23.258;2024-03-23T08:36:32;94747.16;;;13.89;46.86
11347;BME280;5728;42.722;23.258;2024-03-23T08:38:59;94751.28;;;13.66;47.97
11347;BME280;5728;42.722;23.258;2024-03-23T08:41:26;94728.69;;;13.97;48.74
11347;BME280;5728;42.722;23.258;2024-03-23T08:43:52;94741.34;;;14.38;46.40
11347;BME280;5728;42.722;23.258;2024-03-23T08:46:19;94756.28;;;15.15;44.17
11347;BME280;5728;42.722;23.258;2024-03-23T08:48:46;94730.53;;;16.03;42.29
11347;BME280;5728;42.722;23.258;2024-03-23T08:51:15;94725.25;;;15.06;45.05
11347;BME280;5728;42.722;23.258;2024-03-23T08:53:41;94757.53;;;15.80;42.53
11347;BME280;5728;42.722;23.258;2024-03-23T08:56:11;94720.19;;;16.00;44.88
11347;BME280;5728;42.722;23.258;2024-03-23T08:58:38;94719.88;;;16.54;40.02
11347;BME280;5728;42.722;23.258;2024-03-23T09:01:07;94703.94;;;16.37;42.52
11347;BME280;5728;42.722;23.258;2024-03-23T09:03:34;94721.88;;;15.78;41.61
11347;BME280;5728;42.722;23.258;2024-03-23T09:06:02;94688.53;;;16.08;41.84
11347;BME280;5728;42.722;23.258;2024-03-23T09:08:32;94708.63;;;16.74;41.13
11347;BME280;5728;42.722;23.258;2024-03-23T09:11:03;94700.03;;;16.70;41.03
11347;BME280;5728;42.722;23.258;2024-03-23T09:13:33;94711.63;;;16.86;40.28
11347;BME280;5728;42.722;23.258;2024-03-23T09:16:00;94695.22;;;16.81;40.65
11347;BME280;5728;42.722;23.258;2024-03-23T09:18:26;94685.22;;;17.53;42.36
11347;BME280;5728;42.722;23.258;2024-03-23T09:20:54;94686.63;;;17.40;39.00
11347;BME280;5728;42.722;23.258;2024-03-23T09:23:21;94687.56;;;17.39;40.81
11347;BME280;5728;42.722;23.258;2024-03-23T09:25:48;94678.38;;;17.69;37.90
11347;BME280;5728;42.722;23.258;2024-03-23T09:28:14;94677.50;;;18.26;38.47
11347;BME280;5728;42.722;23.258;2024-03-23T09:30:42;94674.97;;;17.47;38.42
11347;BME280;5728;42.722;23.258;2024-03-23T09:33:08;94671.53;;;17.85;39.68
11347;BME280;5728;42.722;23.258;2024-03-23T09:35:37;94659.28;;;18.60;40.15
11347;BME280;5728;42.722;23.258;2024-03-23T09:38:03;94653.19;;;18.60;36.79
11347;BME280;5728;42.722;23.258;2024-03-23T09:40:31;94669.63;;;18.26;37.19
11347;BME280;5728;42.722;23.258;2024-03-23T09:42:57;94631.47;;;18.37;40.45
11347;BME280;5728;42.722;23.258;2024-03-23T09:45:27;94634.22;;;18.89;39.43
11347;BME280;5728;42.722;23.258;2024-03-23T09:47:56;94636.78;;;19.25;37.28
11347;BME280;5728;42.722;23.258;2024-03-23T09:50:23;94630.81;;;19.04;36.12
11347;BME280;5728;42.722;23.258;2024-03-23T09:52:49;94628.97;;;19.23;34.74
11347;BME280;5728;42.722;23.258;2024-03-23T09:55:17;94638.31;;;18.04;37.21
11347;BME280;5728;42.722;23.258;2024-03-23T09:57:43;94624.28;;;18.60;37.13
11347;BME280;5728;42.722;23.258;2024-03-23T10:00:11;94622.31;;;18.82;37.74
11347;BME280;5728;42.722;23.258;2024-03-23T10:02:37;94617.38;;;19.10;35.04
11347;BME280;5728;42.722;23.258;2024-03-23T10:05:20;94623.63;;;19.25;34.64
11347;BME280;5728;42.722;23.258;2024-03-23T10:07:47;94616.13;;;19.84;34.58
11347;BME280;5728;42.722;23.258;2024-03-23T10:10:16;94612.44;;;20.04;33.88
11347;BME280;5728;42.722;23.258;2024-03-23T10:12:46;94610.84;;;20.48;32.33
11347;BME280;5728;42.722;23.258;2024-03-23T10:15:18;94606.44;;;20.64;32.61
11347;BME280;5728;42.722;23.258;2024-03-23T10:17:46;94600.97;;;21.13;31.53
11347;BME280;5728;42.722;23.258;2024-03-23T10:20:19;94588.81;;;21.68;30.75
11347;BME280;5728;42.722;23.258;2024-03-23T10:22:48;94575.63;;;21.82;31.52
11347;BME280;5728;42.722;23.258;2024-03-23T10:25:14;94586.38;;;21.79;30.98
11347;BME280;5728;42.722;23.258;2024-03-23T10:27:43;94579.59;;;21.89;30.34
11347;BME280;5728;42.722;23.258;2024-03-23T10:30:11;94580.63;;;22.82;28.56
11347;BME280;5728;42.722;23.258;2024-03-23T10:32:40;94574.66;;;22.66;28.10
11347;BME280;5728;42.722;23.258;2024-03-23T10:35:18;94576.78;;;21.92;29.03
11347;BME280;5728;42.722;23.258;2024-03-23T10:37:47;94559.88;;;22.50;29.17
11347;BME280;5728;42.722;23.258;2024-03-23T10:40:15;94571.97;;;22.40;28.18
11347;BME280;5728;42.722;23.258;2024-03-23T10:42:42;94552.44;;;21.59;29.25
11347;BME280;5728;42.722;23.258;2024-03-23T10:45:09;94550.34;;;21.36;29.87
11347;BME280;5728;42.722;23.258;2024-03-23T10:47:37;94559.59;;;20.22;29.80
11347;BME280;5728;42.722;23.258;2024-03-23T10:50:04;94536.00;;;20.21;30.19
11347;BME280;5728;42.722;23.258;2024-03-23T10:52:34;94525.94;;;21.02;29.95
11347;BME280;5728;42.722;23.258;2024-03-23T10:55:01;94524.13;;;21.75;29.41
11347;BME280;5728;42.722;23.258;2024-03-23T10:57:34;94530.88;;;22.21;28.58
11347;BME280;5728;42.722;23.258;2024-03-23T11:00:03;94510.06;;;22.17;28.28
11347;BME280;5728;42.722;23.258;2024-03-23T11:02:31;94503.19;;;21.02;29.29
11347;BME280;5728;42.722;23.258;2024-03-23T11:04:57;94498.69;;;21.60;28.30
11347;BME280;5728;42.722;23.258;2024-03-23T11:07:29;94492.50;;;22.43;27.08
11347;BME280;5728;42.722;23.258;2024-03-23T11:09:57;94490.34;;;23.26;26.91
11347;BME280;5728;42.722;23.258;2024-03-23T11:12:29;94498.59;;;23.34;27.44
11347;BME280;5728;42.722;23.258;2024-03-23T11:15:04;94478.34;;;24.33;26.15
11347;BME280;5728;42.722;23.258;2024-03-23T11:17:32;94471.97;;;23.99;25.11
11347;BME280;5728;42.722;23.258;2024-03-23T11:19:59;94460.78;;;24.43;25.02
11347;BME280;5728;42.722;23.258;2024-03-23T11:22:41;94467.03;;;22.15;25.75
11347;BME280;5728;42.722;23.258;2024-03-23T11:25:16;94473.19;;;23.19;25.11
11347;BME280;5728;42.722;23.258;2024-03-23T11:27:45;94463.22;;;22.72;25.38
11347;BME280;5728;42.722;23.258;2024-03-23T11:30:16;94479.13;;;23.10;25.19
11347;BME280;5728;42.722;23.258;2024-03-23T11:32:44;94452.50;;;23.38;24.90
11347;BME280;5728;42.722;23.258;2024-03-23T11:35:10;94431.38;;;24.11;24.47
11347;BME280;5728;42.722;23.258;2024-03-23T11:37:37;94440.53;;;21.90;25.77
11347;BME280;5728;42.722;23.258;2024-03-23T11:40:29;94431.38;;;22.74;25.45
11347;BME280;5728;42.722;23.258;2024-03-23T11:42:58;94439.75;;;23.69;25.15
11347;BME280;5728;42.722;23.258;2024-03-23T11:45:24;94421.81;;;24.32;23.33
11347;BME280;5728;42.722;23.258;2024-03-23T11:48:03;94431.59;;;23.95;23.82
11347;BME280;5728;42.722;23.258;2024-03-23T11:50:30;94406.56;;;24.12;23.63
11347;BME280;5728;42.722;23.258;2024-03-23T11:53:08;94396.41;;;24.30;24.38
11347;BME280;5728;42.722;23.258;2024-03-23T11:55:48;94397.25;;;24.30;23.40
11347;BME280;5728;42.722;23.258;2024-03-23T11:58:17;94395.28;;;24.56;23.28
11347;BME280;5728;42.722;23.258;2024-03-23T12:00:49;94414.38;;;25.07;22.59
11347;BME280;5728;42.722;23.258;2024-03-23T12:03:17;94402.06;;;24.95;23.22
11347;BME280;5728;42.722;23.258;2024-03-23T12:05:48;94378.69;;;23.83;22.99
11347;BME280;5728;42.722;23.258;2024-03-23T12:08:17;94378.16;;;24.84;22.56
11347;BME280;5728;42.722;23.258;2024-03-23T12:10:44;94368.25;;;24.40;23.89
11347;BME280;5728;42.722;23.258;2024-03-23T12:13:15;94369.38;;;25.38;21.64
11347;BME280;5728;42.722;23.258;2024-03-23T12:15:42;94363.41;;;25.48;21.62
11347;BME280;5728;42.722;23.258;2024-03-23T12:18:10;94360.13;;;25.55;21.91
11347;BME280;5728;42.722;23.258;2024-03-23T12:20:37;94358.47;;;25.86;20.61
11347;BME280;5728;42.722;23.258;2024-03-23T12:23:21;94360.28;;;24.29;20.63
11347;BME280;5728;42.722;23.258;2024-03-23T12:25:49;94362.81;;;21.67;22.13
11347;BME280;5728;42.722;23.258;2024-03-23T12:28:16;94373.72;;;21.34;23.04
11347;BME280;5728;42.722;23.258;2024-03-23T12:30:44;94348.28;;;22.13;22.64
11347;BME280;5728;42.722;23.258;2024-03-23T12:33:09;94344.13;;;22.61;21.57
11347;BME280;5728;42.722;23.258;2024-03-23T12:35:36;94345.50;;;21.08;21.75
11347;BME280;5728;42.722;23.258;2024-03-23T12:38:02;94340.84;;;21.52;21.87
11347;BME280;5728;42.722;23.258;2024-03-23T12:40:30;94331.56;;;21.47;21.83
11347;BME280;5728;42.722;23.258;2024-03-23T12:42:56;94340.81;;;21.40;21.80
11347;BME280;5728;42.722;23.258;2024-03-23T12:45:24;94328.88;;;21.20;22.25
11347;BME280;5728;42.722;23.258;2024-03-23T12:47:50;94318.81;;;20.28;22.64
11347;BME280;5728;42.722;23.258;2024-03-23T12:50:19;94311.34;;;21.60;22.15
11347;BME280;5728;42.722;23.258;2024-03-23T12:52:45;94333.50;;;21.57;21.66
11347;BME280;5728;42.722;23.258;2024-03-23T12:55:12;94315.25;;;20.57;21.49
11347;BME280;5728;42.722;23.258;2024-03-23T12:57:38;94304.50;;;21.02;22.48
11347;BME280;5728;42.722;23.258;2024-03-23T13:00:07;94296.06;;;21.65;21.46
11347;BME280;5728;42.722;23.258;2024-03-23T13:02:36;94306.84;;;21.62;21.54
11347;BME280;5728;42.722;23.258;2024-03-23T13:05:05;94297.13;;;21.89;21.50
11347;BME280;5728;42.722;23.258;2024-03-23T13:07:31;94307.31;;;21.28;21.40
11347;BME280;5728;42.722;23.258;2024-03-23T13:09:59;94263.53;;;21.52;21.55
11347;BME280;5728;42.722;23.258;2024-03-23T13:12:25;94282.19;;;21.49;21.42
11347;BME280;5728;42.722;23.258;2024-03-23T13:14:52;94277.41;;;22.96;20.56
11347;BME280;5728;42.722;23.258;2024-03-23T13:17:18;94288.03;;;21.93;21.58
11347;BME280;5728;42.722;23.258;2024-03-23T13:19:47;94306.50;;;22.33;21.63
11347;BME280;5728;42.722;23.258;2024-03-23T13:22:13;94271.88;;;21.58;21.53
11347;BME280;5728;42.722;23.258;2024-03-23T13:24:40;94268.22;;;22.76;21.15
11347;BME280;5728;42.722;23.258;2024-03-23T13:27:06;94273.09;;;22.32;22.15
11347;BME280;5728;42.722;23.258;2024-03-23T13:29:33;94261.25;;;22.75;21.47
11347;BME280;5728;42.722;23.258;2024-03-23T13:32:00;94245.63;;;22.72;21.25
11347;BME280;5728;42.722;23.258;2024-03-23T13:34:27;94250.09;;;23.31;21.00
11347;BME280;5728;42.722;23.258;2024-03-23T13:36:57;94249.25;;;23.43;19.99
11347;BME280;5728;42.722;23.258;2024-03-23T13:39:25;94244.66;;;22.85;20.70
11347;BME280;5728;42.722;23.258;2024-03-23T13:41:53;94238.22;;;21.62;21.65
11347;BME280;5728;42.722;23.258;2024-03-23T13:44:20;94243.91;;;22.08;22.15
11347;BME280;5728;42.722;23.258;2024-03-23T13:46:46;94246.28;;;22.99;20.86
11347;BME280;5728;42.722;23.258;2024-03-23T13:49:24;94224.84;;;24.21;20.12
11347;BME280;5728;42.722;23.258;2024-03-23T13:51:50;94239.72;;;24.56;19.66
11347;BME280;5728;42.722;23.258;2024-03-23T13:54:19;94234.75;;;23.60;19.99
11347;BME280;5728;42.722;23.258;2024-03-23T13:56:45;94226.66;;;21.77;21.83
11347;BME280;5728;42.722;23.258;2024-03-23T13:59:12;94264.72;;;20.79;23.36
11347;BME280;5728;42.722;23.258;2024-03-23T14:01:38;94226.59;;;21.52;22.91